sensor_id;sensor_type;location;lat;lon;timestamp;pressure;altitude;pressure_sealevel;temperature;humidity
69247;BME280;56358;56.328;43.992;2023-11-21T00:01:57;99824.53;;;-6.50;79.54
69247;BME280;56358;56.328;43.992;2023-11-21T00:03:58;99815.88;;;-6.52;79.31
69247;BME280;56358;56.328;43.992;2023-11-21T00:05:58;99842.59;;;-6.40;79.20
69247;BME280;56358;56.328;43.992;2023-11-21T00:07:59;99842.50;;;-6.35;79.30
69247;BME280;56358;56.328;43.992;2023-11-21T00:10:00;99824.50;;;-6.49;79.34
69247;BME280;56358;56.328;43.992;2023-11-21T00:12:00;99839.97;;;-6.40;79.36
69247;BME280;56358;56.328;43.992;2023-11-21T00:14:02;99835.47;;;-6.31;79.05
69247;BME280;56358;56.328;43.992;2023-11-21T00:16:03;99839.75;;;-6.27;79.25
69247;BME280;56358;56.328;43.992;2023-11-21T00:18:04;99842.34;;;-6.27;79.24
69247;BME280;56358;56.328;43.992;2023-11-21T00:20:06;99858.00;;;-6.27;78.63
69247;BME280;56358;56.328;43.992;2023-11-21T00:22:07;99847.59;;;-6.29;78.80
69247;BME280;56358;56.328;43.992;2023-11-21T00:24:09;99832.00;;;-6.32;78.61
69247;BME280;56358;56.328;43.992;2023-11-21T00:26:10;99854.75;;;-6.38;78.40
69247;BME280;56358;56.328;43.992;2023-11-21T00:28:11;99835.63;;;-6.39;78.49
69247;BME280;56358;56.328;43.992;2023-11-21T00:30:12;99812.50;;;-6.59;78.55
69247;BME280;56358;56.328;43.992;2023-11-21T00:32:13;99767.69;;;-6.78;78.80
69247;BME280;56358;56.328;43.992;2023-11-21T00:34:14;99812.31;;;-6.47;78.65
69247;BME280;56358;56.328;43.992;2023-11-21T00:36:14;99838.13;;;-6.33;78.68
69247;BME280;56358;56.328;43.992;2023-11-21T00:38:15;99765.09;;;-6.80;78.53
69247;BME280;56358;56.328;43.992;2023-11-21T00:40:16;99835.56;;;-6.36;78.40
69247;BME280;56358;56.328;43.992;2023-11-21T00:42:19;99765.06;;;-6.78;78.44
69247;BME280;56358;56.328;43.992;2023-11-21T00:44:21;99818.22;;;-6.38;78.73
69247;BME280;56358;56.328;43.992;2023-11-21T00:46:22;99822.56;;;-6.37;78.49
69247;BME280;56358;56.328;43.992;2023-11-21T00:48:24;99818.25;;;-6.40;78.32
69247;BME280;56358;56.328;43.992;2023-11-21T00:50:25;99823.44;;;-6.38;78.85
69247;BME280;56358;56.328;43.992;2023-11-21T00:52:26;99798.38;;;-6.47;78.64
69247;BME280;56358;56.328;43.992;2023-11-21T00:54:27;99815.50;;;-6.32;78.71
69247;BME280;56358;56.328;43.992;2023-11-21T00:56:28;99819.78;;;-6.30;78.52
69247;BME280;56358;56.328;43.992;2023-11-21T00:58:29;99793.06;;;-6.41;78.42
69247;BME280;56358;56.328;43.992;2023-11-21T01:00:30;99801.56;;;-6.31;78.10
69247;BME280;56358;56.328;43.992;2023-11-21T01:02:31;99805.97;;;-6.33;77.94
69247;BME280;56358;56.328;43.992;2023-11-21T01:04:32;99798.16;;;-6.35;78.10
69247;BME280;56358;56.328;43.992;2023-11-21T01:06:33;99786.09;;;-6.41;78.25
69247;BME280;56358;56.328;43.992;2023-11-21T01:08:34;99797.25;;;-6.34;77.99
69247;BME280;56358;56.328;43.992;2023-11-21T01:10:36;99808.53;;;-6.32;78.13
69247;BME280;56358;56.328;43.992;2023-11-21T01:12:38;99804.28;;;-6.36;77.82
69247;BME280;56358;56.328;43.992;2023-11-21T01:14:39;99807.66;;;-6.31;77.94
69247;BME280;56358;56.328;43.992;2023-11-21T01:16:40;99796.38;;;-6.33;78.03
69247;BME280;56358;56.328;43.992;2023-11-21T01:18:40;99595.41;;;-7.55;77.85
69247;BME280;56358;56.328;43.992;2023-11-21T01:20:41;99800.75;;;-6.35;77.88
69247;BME280;56358;56.328;43.992;2023-11-21T01:22:42;99805.16;;;-6.37;77.91
69247;BME280;56358;56.328;43.992;2023-11-21T01:24:43;99804.19;;;-6.33;78.19
69247;BME280;56358;56.328;43.992;2023-11-21T01:26:44;99794.63;;;-6.32;78.27
69247;BME280;56358;56.328;43.992;2023-11-21T01:28:47;99798.97;;;-6.33;78.09
69247;BME280;56358;56.328;43.992;2023-11-21T01:30:49;99784.22;;;-6.34;78.05
69247;BME280;56358;56.328;43.992;2023-11-21T01:32:50;99785.09;;;-6.35;77.81
69247;BME280;56358;56.328;43.992;2023-11-21T01:34:51;99796.34;;;-6.31;77.97
69247;BME280;56358;56.328;43.992;2023-11-21T01:36:51;99808.41;;;-6.26;77.92
69247;BME280;56358;56.328;43.992;2023-11-21T01:38:52;99800.53;;;-6.22;77.90
69247;BME280;56358;56.328;43.992;2023-11-21T01:40:53;99761.13;;;-6.54;77.69
69247;BME280;56358;56.328;43.992;2023-11-21T01:42:53;99719.75;;;-6.71;77.78
69247;BME280;56358;56.328;43.992;2023-11-21T01:44:54;99821.38;;;-6.21;77.53
69247;BME280;56358;56.328;43.992;2023-11-21T01:46:56;99804.72;;;-6.15;77.77
69247;BME280;56358;56.328;43.992;2023-11-21T01:48:58;99793.44;;;-6.16;77.79
69247;BME280;56358;56.328;43.992;2023-11-21T01:51:00;99790.78;;;-6.14;77.59
69247;BME280;56358;56.328;43.992;2023-11-21T01:53:01;99725.38;;;-6.47;77.34
69247;BME280;56358;56.328;43.992;2023-11-21T01:55:02;99789.00;;;-6.12;77.38
69247;BME280;56358;56.328;43.992;2023-11-21T01:57:05;99797.56;;;-6.06;77.18
69247;BME280;56358;56.328;43.992;2023-11-21T01:59:07;99778.59;;;-6.14;77.24
69247;BME280;56358;56.328;43.992;2023-11-21T02:01:08;99794.03;;;-6.03;77.02
69247;BME280;56358;56.328;43.992;2023-11-21T02:03:10;99794.06;;;-6.04;76.89
69247;BME280;56358;56.328;43.992;2023-11-21T02:05:12;99788.13;;;-6.11;76.81
69247;BME280;56358;56.328;43.992;2023-11-21T02:07:13;99788.91;;;-6.08;76.65
69247;BME280;56358;56.328;43.992;2023-11-21T02:09:14;99737.44;;;-6.43;76.57
69247;BME280;56358;56.328;43.992;2023-11-21T02:11:16;99772.56;;;-6.16;76.70
69247;BME280;56358;56.328;43.992;2023-11-21T02:13:16;99794.88;;;-6.01;76.42
69247;BME280;56358;56.328;43.992;2023-11-21T02:15:18;99797.56;;;-6.06;76.67
69247;BME280;56358;56.328;43.992;2023-11-21T02:17:23;99785.34;;;-6.03;76.88
69247;BME280;56358;56.328;43.992;2023-11-21T02:19:24;99781.91;;;-6.06;76.87
69247;BME280;56358;56.328;43.992;2023-11-21T02:21:29;99762.22;;;-6.20;77.07
69247;BME280;56358;56.328;43.992;2023-11-21T02:23:31;99781.94;;;-6.07;76.87
69247;BME280;56358;56.328;43.992;2023-11-21T02:25:32;99731.38;;;-6.44;76.88
69247;BME280;56358;56.328;43.992;2023-11-21T02:27:34;99795.88;;;-6.08;76.97
69247;BME280;56358;56.328;43.992;2023-11-21T02:29:35;99786.31;;;-6.08;77.43
69247;BME280;56358;56.328;43.992;2023-11-21T02:31:36;99692.63;;;-6.62;77.07
69247;BME280;56358;56.328;43.992;2023-11-21T02:33:38;99778.53;;;-6.09;77.19
69247;BME280;56358;56.328;43.992;2023-11-21T02:35:38;99802.88;;;-6.10;77.64
69247;BME280;56358;56.328;43.992;2023-11-21T02:37:39;99803.66;;;-6.05;77.55
69247;BME280;56358;56.328;43.992;2023-11-21T02:39:41;99795.03;;;-6.09;77.46
69247;BME280;56358;56.328;43.992;2023-11-21T02:41:42;99810.59;;;-6.06;77.12
69247;BME280;56358;56.328;43.992;2023-11-21T02:43:43;99800.16;;;-6.06;77.24
69247;BME280;56358;56.328;43.992;2023-11-21T02:45:44;99712.44;;;-6.52;77.12
69247;BME280;56358;56.328;43.992;2023-11-21T02:47:45;99801.09;;;-6.07;77.12
69247;BME280;56358;56.328;43.992;2023-11-21T02:49:46;99780.34;;;-6.14;77.30
69247;BME280;56358;56.328;43.992;2023-11-21T02:51:46;99793.16;;;-6.02;77.42
69247;BME280;56358;56.328;43.992;2023-11-21T02:53:47;99790.53;;;-6.02;77.47
69247;BME280;56358;56.328;43.992;2023-11-21T02:55:47;99781.91;;;-6.06;77.47
69247;BME280;56358;56.328;43.992;2023-11-21T02:57:48;99781.94;;;-6.07;77.89
69247;BME280;56358;56.328;43.992;2023-11-21T02:59:49;99798.31;;;-6.00;77.75
69247;BME280;56358;56.328;43.992;2023-11-21T03:01:50;99788.03;;;-6.08;78.16
69247;BME280;56358;56.328;43.992;2023-11-21T03:03:51;99799.09;;;-5.97;78.17
69247;BME280;56358;56.328;43.992;2023-11-21T03:05:52;99800.16;;;-6.04;78.01
69247;BME280;56358;56.328;43.992;2023-11-21T03:07:53;99796.44;;;-5.95;78.01
69247;BME280;56358;56.328;43.992;2023-11-21T03:09:53;99794.69;;;-5.93;78.26
69247;BME280;56358;56.328;43.992;2023-11-21T03:11:54;99724.19;;;-6.32;77.62
69247;BME280;56358;56.328;43.992;2023-11-21T03:13:55;99792.13;;;-5.96;77.63
69247;BME280;56358;56.328;43.992;2023-11-21T03:15:55;99719.16;;;-6.42;77.64
69247;BME280;56358;56.328;43.992;2023-11-21T03:17:56;99791.38;;;-6.00;77.92
69247;BME280;56358;56.328;43.992;2023-11-21T03:19:57;99714.00;;;-6.45;78.03
69247;BME280;56358;56.328;43.992;2023-11-21T03:21:58;99778.38;;;-6.03;77.93
69247;BME280;56358;56.328;43.992;2023-11-21T03:23:59;99791.16;;;-5.92;77.96
69247;BME280;56358;56.328;43.992;2023-11-21T03:26:00;99792.13;;;-5.96;78.08
69247;BME280;56358;56.328;43.992;2023-11-21T03:28:01;99784.50;;;-6.06;78.33
69247;BME280;56358;56.328;43.992;2023-11-21T03:30:02;99800.81;;;-5.96;78.21
69247;BME280;56358;56.328;43.992;2023-11-21T03:32:06;99782.81;;;-6.07;78.41
69247;BME280;56358;56.328;43.992;2023-11-21T03:34:11;99770.66;;;-6.08;78.69
69247;BME280;56358;56.328;43.992;2023-11-21T03:36:12;99780.78;;;-5.95;78.59
69247;BME280;56358;56.328;43.992;2023-11-21T03:38:13;99781.63;;;-5.93;78.63
69247;BME280;56358;56.328;43.992;2023-11-21T03:40:13;99784.44;;;-6.01;78.34
69247;BME280;56358;56.328;43.992;2023-11-21T03:42:14;99787.78;;;-5.96;78.46
69247;BME280;56358;56.328;43.992;2023-11-21T03:44:15;99794.69;;;-5.95;78.60
69247;BME280;56358;56.328;43.992;2023-11-21T03:46:16;99783.56;;;-6.01;78.89
69247;BME280;56358;56.328;43.992;2023-11-21T03:48:16;99796.41;;;-5.94;78.84
69247;BME280;56358;56.328;43.992;2023-11-21T03:50:17;99795.63;;;-5.97;78.79
69247;BME280;56358;56.328;43.992;2023-11-21T03:52:17;99787.81;;;-5.97;79.23
69247;BME280;56358;56.328;43.992;2023-11-21T03:54:18;99787.81;;;-5.97;79.14
69247;BME280;56358;56.328;43.992;2023-11-21T03:56:19;99774.09;;;-6.07;79.43
69247;BME280;56358;56.328;43.992;2023-11-21T03:58:22;99750.84;;;-6.18;79.35
69247;BME280;56358;56.328;43.992;2023-11-21T04:00:23;99804.44;;;-6.00;79.25
69247;BME280;56358;56.328;43.992;2023-11-21T04:02:24;99781.78;;;-5.99;79.15
69247;BME280;56358;56.328;43.992;2023-11-21T04:04:26;99636.72;;;-6.89;79.32
69247;BME280;56358;56.328;43.992;2023-11-21T04:06:27;99802.69;;;-6.01;79.60
69247;BME280;56358;56.328;43.992;2023-11-21T04:08:27;99795.78;;;-6.03;79.60
69247;BME280;56358;56.328;43.992;2023-11-21T04:10:28;99804.44;;;-6.01;79.59
69247;BME280;56358;56.328;43.992;2023-11-21T04:12:29;99727.16;;;-6.49;79.61
69247;BME280;56358;56.328;43.992;2023-11-21T04:14:30;99802.63;;;-5.98;79.74
69247;BME280;56358;56.328;43.992;2023-11-21T04:16:30;99713.28;;;-6.51;79.67
69247;BME280;56358;56.328;43.992;2023-11-21T04:18:31;99819.16;;;-5.99;79.64
69247;BME280;56358;56.328;43.992;2023-11-21T04:20:31;99764.03;;;-6.26;79.69
69247;BME280;56358;56.328;43.992;2023-11-21T04:22:32;99807.06;;;-6.03;79.75
69247;BME280;56358;56.328;43.992;2023-11-21T04:24:33;99825.34;;;-6.03;79.58
69247;BME280;56358;56.328;43.992;2023-11-21T04:26:34;99803.72;;;-6.10;79.68
69247;BME280;56358;56.328;43.992;2023-11-21T04:28:34;99818.47;;;-6.07;80.29
69247;BME280;56358;56.328;43.992;2023-11-21T04:30:35;99810.56;;;-6.02;80.41
69247;BME280;56358;56.328;43.992;2023-11-21T04:32:36;99825.31;;;-6.00;80.38
69247;BME280;56358;56.328;43.992;2023-11-21T04:34:36;99798.41;;;-6.03;80.11
69247;BME280;56358;56.328;43.992;2023-11-21T04:36:38;99806.22;;;-6.03;80.04
69247;BME280;56358;56.328;43.992;2023-11-21T04:38:40;99800.06;;;-5.99;80.51
69247;BME280;56358;56.328;43.992;2023-11-21T04:40:41;99813.09;;;-5.99;80.56
69247;BME280;56358;56.328;43.992;2023-11-21T04:42:42;99823.50;;;-5.98;80.42
69247;BME280;56358;56.328;43.992;2023-11-21T04:44:42;99815.78;;;-6.02;80.43
69247;BME280;56358;56.328;43.992;2023-11-21T04:46:44;99808.75;;;-6.00;80.72
69247;BME280;56358;56.328;43.992;2023-11-21T04:48:45;99800.94;;;-6.00;80.34
69247;BME280;56358;56.328;43.992;2023-11-21T04:50:45;99800.09;;;-6.01;80.42
69247;BME280;56358;56.328;43.992;2023-11-21T04:52:46;99802.66;;;-5.99;80.63
69247;BME280;56358;56.328;43.992;2023-11-21T04:54:47;99784.69;;;-6.15;80.84
69247;BME280;56358;56.328;43.992;2023-11-21T04:56:48;99820.97;;;-6.01;80.42
69247;BME280;56358;56.328;43.992;2023-11-21T04:58:49;99798.34;;;-6.02;81.21
69247;BME280;56358;56.328;43.992;2023-11-21T05:00:50;99809.50;;;-5.95;81.15
69247;BME280;56358;56.328;43.992;2023-11-21T05:02:50;99802.53;;;-5.95;80.86
69247;BME280;56358;56.328;43.992;2023-11-21T05:04:51;99736.25;;;-6.27;81.30
69247;BME280;56358;56.328;43.992;2023-11-21T05:06:52;99796.34;;;-5.89;81.05
69247;BME280;56358;56.328;43.992;2023-11-21T05:08:52;99783.19;;;-5.86;81.08
69247;BME280;56358;56.328;43.992;2023-11-21T05:10:53;99767.88;;;-6.01;80.94
69247;BME280;56358;56.328;43.992;2023-11-21T05:12:54;99778.03;;;-5.87;80.78
69247;BME280;56358;56.328;43.992;2023-11-21T05:14:56;99787.47;;;-5.82;80.86
69247;BME280;56358;56.328;43.992;2023-11-21T05:16:56;99765.06;;;-5.92;80.89
69247;BME280;56358;56.328;43.992;2023-11-21T05:18:57;99783.84;;;-5.76;80.87
69247;BME280;56358;56.328;43.992;2023-11-21T05:21:02;99790.97;;;-5.83;80.82
69247;BME280;56358;56.328;43.992;2023-11-21T05:23:02;99800.47;;;-5.80;80.82
69247;BME280;56358;56.328;43.992;2023-11-21T05:25:03;99781.63;;;-5.95;80.88
69247;BME280;56358;56.328;43.992;2023-11-21T05:27:05;99803.03;;;-5.77;80.72
69247;BME280;56358;56.328;43.992;2023-11-21T05:29:06;99808.25;;;-5.77;80.51
69247;BME280;56358;56.328;43.992;2023-11-21T05:31:07;99812.59;;;-5.78;80.75
69247;BME280;56358;56.328;43.992;2023-11-21T05:33:07;99820.41;;;-5.76;80.31
69247;BME280;56358;56.328;43.992;2023-11-21T05:35:08;99809.06;;;-5.75;80.59
69247;BME280;56358;56.328;43.992;2023-11-21T05:37:18;99803.84;;;-5.75;80.60
69247;BME280;56358;56.328;43.992;2023-11-21T05:39:19;99802.00;;;-5.70;80.65
69247;BME280;56358;56.328;43.992;2023-11-21T05:41:20;99733.31;;;-6.11;80.19
69247;BME280;56358;56.328;43.992;2023-11-21T05:43:20;99798.50;;;-5.69;79.89
69247;BME280;56358;56.328;43.992;2023-11-21T05:45:21;99795.84;;;-5.67;79.83
69247;BME280;56358;56.328;43.992;2023-11-21T05:47:22;99801.88;;;-5.64;80.00
69247;BME280;56358;56.328;43.992;2023-11-21T05:49:22;99797.72;;;-5.73;80.24
69247;BME280;56358;56.328;43.992;2023-11-21T05:51:23;99814.84;;;-5.61;79.49
69247;BME280;56358;56.328;43.992;2023-11-21T05:53:25;99816.59;;;-5.61;79.64
69247;BME280;56358;56.328;43.992;2023-11-21T05:55:26;99816.59;;;-5.60;79.94
69247;BME280;56358;56.328;43.992;2023-11-21T05:57:27;99794.06;;;-5.65;79.35
69247;BME280;56358;56.328;43.992;2023-11-21T05:59:27;99810.44;;;-5.57;79.53
69247;BME280;56358;56.328;43.992;2023-11-21T06:01:28;99784.41;;;-5.62;79.04
69247;BME280;56358;56.328;43.992;2023-11-21T06:03:29;99788.88;;;-5.67;78.48
69247;BME280;56358;56.328;43.992;2023-11-21T06:05:29;99806.13;;;-5.60;78.86
69247;BME280;56358;56.328;43.992;2023-11-21T06:07:33;99814.06;;;-5.64;78.62
69247;BME280;56358;56.328;43.992;2023-11-21T06:09:34;99814.06;;;-5.64;78.52
69247;BME280;56358;56.328;43.992;2023-11-21T06:11:35;99819.19;;;-5.61;78.72
69247;BME280;56358;56.328;43.992;2023-11-21T06:13:36;99817.44;;;-5.59;78.48
69247;BME280;56358;56.328;43.992;2023-11-21T06:15:36;99800.25;;;-5.69;78.71
69247;BME280;56358;56.328;43.992;2023-11-21T06:17:37;99744.47;;;-6.04;78.07
69247;BME280;56358;56.328;43.992;2023-11-21T06:19:39;99847.84;;;-5.57;78.26
69247;BME280;56358;56.328;43.992;2023-11-21T06:21:41;99813.03;;;-5.57;78.06
69247;BME280;56358;56.328;43.992;2023-11-21T06:23:41;99819.97;;;-5.56;77.76
69247;BME280;56358;56.328;43.992;2023-11-21T06:25:42;99804.56;;;-5.68;77.44
69247;BME280;56358;56.328;43.992;2023-11-21T06:27:44;99817.22;;;-5.50;77.54
69247;BME280;56358;56.328;43.992;2023-11-21T06:29:46;99817.16;;;-5.47;77.34
69247;BME280;56358;56.328;43.992;2023-11-21T06:31:47;99813.66;;;-5.46;77.12
69247;BME280;56358;56.328;43.992;2023-11-21T06:33:48;99732.91;;;-5.94;77.16
69247;BME280;56358;56.328;43.992;2023-11-21T06:35:50;99810.09;;;-5.43;77.09
69247;BME280;56358;56.328;43.992;2023-11-21T06:37:51;99810.81;;;-5.36;76.73
69247;BME280;56358;56.328;43.992;2023-11-21T06:39:53;99819.38;;;-5.30;76.45
69247;BME280;56358;56.328;43.992;2023-11-21T06:41:53;99699.16;;;-6.00;76.07
69247;BME280;56358;56.328;43.992;2023-11-21T06:43:54;99815.00;;;-5.29;75.88
69247;BME280;56358;56.328;43.992;2023-11-21T06:45:55;99811.53;;;-5.30;76.08
69247;BME280;56358;56.328;43.992;2023-11-21T06:47:56;99810.66;;;-5.29;75.88
69247;BME280;56358;56.328;43.992;2023-11-21T06:49:56;99804.75;;;-5.39;76.16
69247;BME280;56358;56.328;43.992;2023-11-21T06:51:58;99822.00;;;-5.30;75.68
69247;BME280;56358;56.328;43.992;2023-11-21T06:53:59;99820.97;;;-5.24;75.91
69247;BME280;56358;56.328;43.992;2023-11-21T06:55:59;99744.81;;;-5.81;76.13
69247;BME280;56358;56.328;43.992;2023-11-21T06:58:01;99831.34;;;-5.19;75.66
69247;BME280;56358;56.328;43.992;2023-11-21T07:00:02;99830.56;;;-5.23;75.65
69247;BME280;56358;56.328;43.992;2023-11-21T07:02:08;99822.00;;;-5.30;75.81
69247;BME280;56358;56.328;43.992;2023-11-21T07:04:09;99846.22;;;-5.23;75.61
69247;BME280;56358;56.328;43.992;2023-11-21T07:06:10;99800.53;;;-5.44;75.44
69247;BME280;56358;56.328;43.992;2023-11-21T07:08:11;99818.69;;;-5.38;75.05
69247;BME280;56358;56.328;43.992;2023-11-21T07:10:13;99816.69;;;-5.27;75.05
69247;BME280;56358;56.328;43.992;2023-11-21T07:12:14;99832.31;;;-5.25;75.29
69247;BME280;56358;56.328;43.992;2023-11-21T07:14:15;99829.91;;;-5.33;75.36
69247;BME280;56358;56.328;43.992;2023-11-21T07:16:18;99819.25;;;-5.25;75.40
69247;BME280;56358;56.328;43.992;2023-11-21T07:18:19;99820.97;;;-5.24;75.09
69247;BME280;56358;56.328;43.992;2023-11-21T07:20:19;99829.75;;;-5.27;74.98
69247;BME280;56358;56.328;43.992;2023-11-21T07:22:21;99769.41;;;-5.53;75.40
69247;BME280;56358;56.328;43.992;2023-11-21T07:24:22;99760.00;;;-5.61;74.95
69247;BME280;56358;56.328;43.992;2023-11-21T07:26:23;99830.41;;;-5.17;75.36
69247;BME280;56358;56.328;43.992;2023-11-21T07:28:25;99836.50;;;-5.16;75.06
69247;BME280;56358;56.328;43.992;2023-11-21T07:30:26;99837.34;;;-5.16;75.08
69247;BME280;56358;56.328;43.992;2023-11-21T07:32:27;99843.31;;;-5.11;75.35
69247;BME280;56358;56.328;43.992;2023-11-21T07:34:28;99850.22;;;-5.08;74.94
69247;BME280;56358;56.328;43.992;2023-11-21T07:36:29;99858.91;;;-5.06;74.50
69247;BME280;56358;56.328;43.992;2023-11-21T07:38:29;99862.41;;;-5.07;74.74
69247;BME280;56358;56.328;43.992;2023-11-21T07:40:30;99869.31;;;-5.05;74.99
69247;BME280;56358;56.328;43.992;2023-11-21T07:42:31;99858.00;;;-5.05;74.36
69247;BME280;56358;56.328;43.992;2023-11-21T07:44:32;99853.59;;;-5.03;74.38
69247;BME280;56358;56.328;43.992;2023-11-21T07:46:32;99859.72;;;-5.04;73.79
69247;BME280;56358;56.328;43.992;2023-11-21T07:48:34;99884.34;;;-5.13;74.15
69247;BME280;56358;56.328;43.992;2023-11-21T07:50:35;99762.00;;;-5.70;74.03
69247;BME280;56358;56.328;43.992;2023-11-21T07:52:36;99873.22;;;-5.23;74.00
69247;BME280;56358;56.328;43.992;2023-11-21T07:54:36;99823.84;;;-5.35;74.61
69247;BME280;56358;56.328;43.992;2023-11-21T07:56:38;99847.91;;;-5.20;75.28
69247;BME280;56358;56.328;43.992;2023-11-21T07:58:38;99856.56;;;-5.18;75.13
69247;BME280;56358;56.328;43.992;2023-11-21T08:00:39;99847.78;;;-5.16;74.93
69247;BME280;56358;56.328;43.992;2023-11-21T08:02:40;99839.19;;;-5.19;74.23
69247;BME280;56358;56.328;43.992;2023-11-21T08:04:46;99845.19;;;-5.16;75.08
69247;BME280;56358;56.328;43.992;2023-11-21T08:06:49;99859.09;;;-5.14;74.70
69247;BME280;56358;56.328;43.992;2023-11-21T08:08:50;99854.66;;;-5.12;75.18
69247;BME280;56358;56.328;43.992;2023-11-21T08:10:51;99852.84;;;-5.08;74.67
69247;BME280;56358;56.328;43.992;2023-11-21T08:12:59;99858.19;;;-5.13;74.17
69247;BME280;56358;56.328;43.992;2023-11-21T08:14:59;99854.78;;;-5.16;74.44
69247;BME280;56358;56.328;43.992;2023-11-21T08:17:01;99852.13;;;-5.15;74.85
69247;BME280;56358;56.328;43.992;2023-11-21T08:19:01;99866.97;;;-5.15;74.93
69247;BME280;56358;56.328;43.992;2023-11-21T08:21:03;99867.84;;;-5.16;74.50
69247;BME280;56358;56.328;43.992;2023-11-21T08:23:05;99874.06;;;-5.20;74.63
69247;BME280;56358;56.328;43.992;2023-11-21T08:25:06;99769.66;;;-5.64;74.86
69247;BME280;56358;56.328;43.992;2023-11-21T08:27:08;99812.72;;;-5.43;75.43
69247;BME280;56358;56.328;43.992;2023-11-21T08:29:08;99849.47;;;-5.13;75.27
69247;BME280;56358;56.328;43.992;2023-11-21T08:31:09;99865.94;;;-5.10;74.68
69247;BME280;56358;56.328;43.992;2023-11-21T08:33:10;99859.78;;;-5.07;74.92
69247;BME280;56358;56.328;43.992;2023-11-21T08:35:14;99843.44;;;-5.15;74.61
69247;BME280;56358;56.328;43.992;2023-11-21T08:37:16;99782.44;;;-5.52;74.23
69247;BME280;56358;56.328;43.992;2023-11-21T08:39:17;99852.84;;;-5.08;74.37
69247;BME280;56358;56.328;43.992;2023-11-21T08:41:19;99853.72;;;-5.09;74.67
69247;BME280;56358;56.328;43.992;2023-11-21T08:43:22;99866.63;;;-5.01;74.54
69247;BME280;56358;56.328;43.992;2023-11-21T08:45:25;99860.59;;;-5.05;73.76
69247;BME280;56358;56.328;43.992;2023-11-21T08:47:26;99857.16;;;-5.06;74.12
69247;BME280;56358;56.328;43.992;2023-11-21T08:49:27;99858.94;;;-5.08;74.46
69247;BME280;56358;56.328;43.992;2023-11-21T08:51:30;99842.56;;;-5.16;74.52
69247;BME280;56358;56.328;43.992;2023-11-21T08:53:30;99846.69;;;-5.06;74.23
69247;BME280;56358;56.328;43.992;2023-11-21T08:55:31;99844.28;;;-5.15;74.39
69247;BME280;56358;56.328;43.992;2023-11-21T08:57:32;99878.91;;;-5.05;74.78
69247;BME280;56358;56.328;43.992;2023-11-21T08:59:32;99774.78;;;-5.60;74.47
69247;BME280;56358;56.328;43.992;2023-11-21T09:01:33;99802.16;;;-5.37;74.19
69247;BME280;56358;56.328;43.992;2023-11-21T09:03:34;99850.91;;;-5.00;73.74
69247;BME280;56358;56.328;43.992;2023-11-21T09:05:38;99852.63;;;-4.99;74.11
69247;BME280;56358;56.328;43.992;2023-11-21T09:07:40;99851.75;;;-4.98;74.19
69247;BME280;56358;56.328;43.992;2023-11-21T09:09:42;99863.78;;;-4.92;73.87
69247;BME280;56358;56.328;43.992;2023-11-21T09:11:43;99796.84;;;-5.34;73.43
69247;BME280;56358;56.328;43.992;2023-11-21T09:13:44;99799.53;;;-5.37;74.04
69247;BME280;56358;56.328;43.992;2023-11-21T09:15:45;99865.78;;;-5.02;74.12
69247;BME280;56358;56.328;43.992;2023-11-21T09:17:47;99851.25;;;-5.14;74.16
69247;BME280;56358;56.328;43.992;2023-11-21T09:19:48;99871.97;;;-5.06;73.76
69247;BME280;56358;56.328;43.992;2023-11-21T09:21:51;99854.91;;;-5.21;73.99
69247;BME280;56358;56.328;43.992;2023-11-21T09:23:52;99872.19;;;-5.15;74.49
69247;BME280;56358;56.328;43.992;2023-11-21T09:25:54;99878.31;;;-5.16;74.63
69247;BME280;56358;56.328;43.992;2023-11-21T09:27:57;99866.97;;;-5.15;73.96
69247;BME280;56358;56.328;43.992;2023-11-21T09:29:58;99863.50;;;-5.17;74.37
69247;BME280;56358;56.328;43.992;2023-11-21T09:31:59;99776.91;;;-5.76;74.47
69247;BME280;56358;56.328;43.992;2023-11-21T09:34:00;99880.16;;;-5.22;74.69
69247;BME280;56358;56.328;43.992;2023-11-21T09:36:00;99849.81;;;-5.27;74.41
69247;BME280;56358;56.328;43.992;2023-11-21T09:38:01;99867.81;;;-5.15;74.42
69247;BME280;56358;56.328;43.992;2023-11-21T09:40:10;99893.09;;;-5.15;75.01
69247;BME280;56358;56.328;43.992;2023-11-21T09:42:23;99863.56;;;-5.19;74.73
69247;BME280;56358;56.328;43.992;2023-11-21T09:44:34;99875.00;;;-5.25;74.85
69247;BME280;56358;56.328;43.992;2023-11-21T09:46:36;99843.06;;;-5.38;74.75
69247;BME280;56358;56.328;43.992;2023-11-21T09:48:40;99874.13;;;-5.25;75.28
69247;BME280;56358;56.328;43.992;2023-11-21T09:50:42;99853.31;;;-5.28;75.29
69247;BME280;56358;56.328;43.992;2023-11-21T09:52:54;99866.03;;;-5.13;75.13
69247;BME280;56358;56.328;43.992;2023-11-21T09:54:56;99864.28;;;-5.12;74.96
69247;BME280;56358;56.328;43.992;2023-11-21T09:57:02;99853.84;;;-5.14;75.37
69247;BME280;56358;56.328;43.992;2023-11-21T09:59:03;99720.63;;;-5.89;74.84
69247;BME280;56358;56.328;43.992;2023-11-21T10:01:07;99859.59;;;-4.98;75.46
69247;BME280;56358;56.328;43.992;2023-11-21T10:03:10;99849.22;;;-5.01;75.42
69247;BME280;56358;56.328;43.992;2023-11-21T10:05:12;99859.41;;;-4.90;74.65
69247;BME280;56358;56.328;43.992;2023-11-21T10:07:15;99846.31;;;-4.90;74.62
69247;BME280;56358;56.328;43.992;2023-11-21T10:09:18;99845.50;;;-4.92;74.42
69247;BME280;56358;56.328;43.992;2023-11-21T10:11:25;99858.44;;;-4.86;74.92
69247;BME280;56358;56.328;43.992;2023-11-21T10:13:29;99861.97;;;-4.89;74.66
69247;BME280;56358;56.328;43.992;2023-11-21T10:15:33;99863.72;;;-4.89;74.60
69247;BME280;56358;56.328;43.992;2023-11-21T10:17:36;99863.75;;;-4.91;74.34
69247;BME280;56358;56.328;43.992;2023-11-21T10:19:46;99863.00;;;-4.94;74.57
69247;BME280;56358;56.328;43.992;2023-11-21T10:21:47;99854.53;;;-5.06;74.01
69247;BME280;56358;56.328;43.992;2023-11-21T10:23:48;99863.09;;;-4.99;74.35
69247;BME280;56358;56.328;43.992;2023-11-21T10:25:50;99842.66;;;-5.19;74.46
69247;BME280;56358;56.328;43.992;2023-11-21T10:27:57;99861.56;;;-5.09;75.03
69247;BME280;56358;56.328;43.992;2023-11-21T10:30:02;99867.72;;;-5.10;74.77
69247;BME280;56358;56.328;43.992;2023-11-21T10:32:05;99847.66;;;-5.10;75.34
69247;BME280;56358;56.328;43.992;2023-11-21T10:34:17;99859.59;;;-4.98;75.36
69247;BME280;56358;56.328;43.992;2023-11-21T10:36:28;99864.69;;;-4.93;75.30